Time;durP1;ratioP1;P1;durP2;ratioP2;P2;SDS_P1;SDS_P2;PMS_P1;PMS_P2;Temp;Humidity;BMP_temperature;BMP_pressure;BME280_temperature;BME280_humidity;BME280_pressure;Samples;Min_cycle;Max_cycle;Signal;HPM_P1;HPM_P2
2023/03/17 00:01:28;;;;;;;10.23;9.52;;;;;;;;;;4995846;28;20034;-59
2023/03/17 00:03:54;;;;;;;10.27;9.68;;;;;;;;;;4999975;28;20041;-57
2023/03/17 00:06:28;;;;;;;11.82;10.98;;;;;;;;;;4996221;28;20070;-57
2023/03/17 00:08:53;;;;;;;9.65;9.05;;;;;;;;;;4992360;28;20100;-57
2023/03/17 00:11:20;;;;;;;10.80;10.10;;;;;;;;;;4993909;28;20033;-57
2023/03/17 00:13:45;;;;;;;9.63;9.02;;;;;;;;;;4993107;28;20035;-57
2023/03/17 00:16:20;;;;;;;9.38;8.77;;;;;;;;;;4995491;28;20496;-57
2023/03/17 00:18:47;;;;;;;11.10;10.18;;;;;;;;;;4992587;28;20034;-58
2023/03/17 00:21:14;;;;;;;9.35;8.75;;;;;;;;;;4993625;28;20050;-57
2023/03/17 00:23:40;;;;;;;11.05;9.82;;;;;;;;;;5010164;28;20026;-57
2023/03/17 00:26:05;;;;;;;9.10;8.50;;;;;;;;;;4992586;28;20064;-58
2023/03/17 00:28:31;;;;;;;10.82;10.13;;;;;;;;;;4992732;28;20524;-58
2023/03/17 00:31:02;;;;;;;9.75;8.98;;;;;;;;;;4996613;28;20038;-55
2023/03/17 00:33:33;;;;;;;9.43;8.82;;;;;;;;;;4995379;28;20030;-57
2023/03/17 00:36:00;;;;;;;11.35;10.63;;;;;;;;;;4995084;28;20472;-57
2023/03/17 00:38:26;;;;;;;10.70;9.98;;;;;;;;;;4997084;28;20064;-57
2023/03/17 00:40:53;;;;;;;9.38;8.77;;;;;;;;;;4997050;28;20044;-55
2023/03/17 00:43:18;;;;;;;9.27;8.68;;;;;;;;;;4997469;28;20583;-57
2023/03/17 00:45:45;;;;;;;9.18;8.57;;;;;;;;;;4999279;28;20113;-57
2023/03/17 00:48:19;;;;;;;8.98;8.38;;;;;;;;;;4998839;28;20049;-56
2023/03/17 00:50:48;;;;;;;10.77;10.07;;;;;;;;;;4996491;28;20380;-56
2023/03/17 00:53:20;;;;;;;10.10;9.40;;;;;;;;;;4999238;28;20026;-56
2023/03/17 00:55:46;;;;;;;10.38;9.48;;;;;;;;;;4996736;28;20029;-56
2023/03/17 00:58:25;;;;;;;9.93;9.32;;;;;;;;;;4995986;28;20172;-56
2023/03/17 01:00:52;;;;;;;10.02;9.43;;;;;;;;;;4998519;28;20033;-56
2023/03/17 01:03:18;;;;;;;9.68;9.07;;;;;;;;;;5001148;28;20085;-56
2023/03/17 01:05:45;;;;;;;9.82;9.23;;;;;;;;;;4996992;28;20038;-56
2023/03/17 01:08:10;;;;;;;10.65;9.95;;;;;;;;;;4993822;28;20038;-56
2023/03/17 01:10:36;;;;;;;11.77;10.95;;;;;;;;;;4994642;28;20045;-56
2023/03/17 01:13:02;;;;;;;11.15;10.38;;;;;;;;;;4997532;28;20511;-56
2023/03/17 01:15:30;;;;;;;11.00;10.30;;;;;;;;;;4997233;28;20030;-56
2023/03/17 01:17:57;;;;;;;10.98;10.27;;;;;;;;;;4993180;28;20034;-56
2023/03/17 01:20:33;;;;;;;10.70;9.98;;;;;;;;;;4993095;28;20038;-56
2023/03/17 01:22:59;;;;;;;10.52;9.82;;;;;;;;;;4997669;28;20092;-56
2023/03/17 01:25:24;;;;;;;10.15;9.55;;;;;;;;;;4997316;28;20411;-56
2023/03/17 01:27:50;;;;;;;10.98;10.27;;;;;;;;;;4996663;28;20037;-55
2023/03/17 01:30:18;;;;;;;10.63;9.93;;;;;;;;;;4996362;28;20463;-55
2023/03/17 01:32:44;;;;;;;10.38;9.68;;;;;;;;;;5011781;28;20045;-56
2023/03/17 01:35:10;;;;;;;11.45;10.75;;;;;;;;;;4994994;28;21020;-56
2023/03/17 01:37:36;;;;;;;11.27;10.57;;;;;;;;;;4992653;28;20030;-55
2023/03/17 01:40:02;;;;;;;11.40;10.70;;;;;;;;;;4994486;28;20068;-56
2023/03/17 01:42:28;;;;;;;11.30;10.48;;;;;;;;;;4997424;28;20062;-56
2023/03/17 01:45:01;;;;;;;11.00;10.30;;;;;;;;;;4995013;28;20064;-56
2023/03/17 01:47:30;;;;;;;11.45;10.68;;;;;;;;;;4995693;28;20062;-56
2023/03/17 01:50:07;;;;;;;12.63;11.80;;;;;;;;;;4996601;28;20125;-56
2023/03/17 01:52:38;;;;;;;11.35;10.55;;;;;;;;;;4997391;28;20192;-56
2023/03/17 01:55:08;;;;;;;11.93;11.13;;;;;;;;;;4998649;28;20357;-56
2023/03/17 01:57:39;;;;;;;10.95;10.25;;;;;;;;;;4996227;28;20034;-56
2023/03/17 02:00:08;;;;;;;10.48;9.88;;;;;;;;;;4998973;28;20081;-55
2023/03/17 02:02:37;;;;;;;10.73;10.02;;;;;;;;;;4997067;28;20049;-56
2023/03/17 02:05:04;;;;;;;11.95;11.20;;;;;;;;;;5003781;28;20044;-55
2023/03/17 02:07:30;;;;;;;10.45;9.75;;;;;;;;;;4993626;28;20052;-56
2023/03/17 02:09:56;;;;;;;11.43;10.68;;;;;;;;;;4994033;28;20030;-55
2023/03/17 02:12:23;;;;;;;10.85;10.18;;;;;;;;;;4995486;28;20069;-56
2023/03/17 02:14:50;;;;;;;11.27;10.52;;;;;;;;;;5009115;28;20034;-56
2023/03/17 02:17:17;;;;;;;10.57;9.77;;;;;;;;;;4997915;28;20042;-56
2023/03/17 02:19:42;;;;;;;11.50;10.77;;;;;;;;;;5012608;28;20038;-56
2023/03/17 02:22:08;;;;;;;11.18;10.48;;;;;;;;;;4997952;28;20082;-56
2023/03/17 02:24:38;;;;;;;10.55;9.85;;;;;;;;;;4996398;28;20022;-56
2023/03/17 02:27:11;;;;;;;10.32;9.73;;;;;;;;;;4995107;28;20346;-56
2023/03/17 02:29:37;;;;;;;10.45;9.85;;;;;;;;;;4997295;28;20510;-61
2023/03/17 02:32:04;;;;;;;9.68;9.07;;;;;;;;;;4994308;28;20030;-56
2023/03/17 02:34:30;;;;;;;10.63;9.90;;;;;;;;;;4993784;28;20185;-56
2023/03/17 02:36:56;;;;;;;11.00;10.30;;;;;;;;;;4995885;28;20092;-55
2023/03/17 02:39:21;;;;;;;10.23;9.52;;;;;;;;;;5006368;28;20062;-56
2023/03/17 02:41:46;;;;;;;11.10;10.40;;;;;;;;;;4993802;28;20042;-56
2023/03/17 02:44:12;;;;;;;10.70;10.00;;;;;;;;;;4994283;28;20034;-56
2023/03/17 02:46:37;;;;;;;10.23;9.63;;;;;;;;;;4995892;28;20045;-56
2023/03/17 02:49:03;;;;;;;10.82;10.13;;;;;;;;;;4996532;28;20034;-56
2023/03/17 02:51:29;;;;;;;9.80;9.20;;;;;;;;;;4996233;28;20127;-54
2023/03/17 02:53:54;;;;;;;10.82;10.10;;;;;;;;;;4994592;28;20093;-56
2023/03/17 02:56:20;;;;;;;10.98;10.27;;;;;;;;;;4994361;28;20558;-56
2023/03/17 02:58:45;;;;;;;11.80;11.00;;;;;;;;;;5011520;28;20037;-57
2023/03/17 03:01:11;;;;;;;11.13;10.40;;;;;;;;;;4995490;28;20037;-56
2023/03/17 03:03:37;;;;;;;11.02;10.32;;;;;;;;;;4995617;28;20027;-56
2023/03/17 03:06:03;;;;;;;11.25;10.55;;;;;;;;;;4996920;28;20038;-55
2023/03/17 03:08:28;;;;;;;11.95;11.10;;;;;;;;;;4989344;28;20034;-55
2023/03/17 03:10:54;;;;;;;11.70;10.93;;;;;;;;;;4995933;28;20535;-56
2023/03/17 03:13:20;;;;;;;11.27;10.57;;;;;;;;;;4993985;28;20041;-55
2023/03/17 03:15:46;;;;;;;10.45;9.85;;;;;;;;;;4994514;28;20053;-55
2023/03/17 03:18:11;;;;;;;9.63;9.02;;;;;;;;;;4995173;28;20029;-54
2023/03/17 03:20:40;;;;;;;9.98;9.38;;;;;;;;;;4994746;28;20061;-55
2023/03/17 03:23:05;;;;;;;10.95;10.23;;;;;;;;;;4993909;28;20128;-56
2023/03/17 03:25:31;;;;;;;10.82;10.15;;;;;;;;;;4995824;28;20179;-56
2023/03/17 03:27:56;;;;;;;11.15;10.45;;;;;;;;;;4995304;28;20507;-55
2023/03/17 03:30:21;;;;;;;10.52;9.77;;;;;;;;;;4996576;28;20376;-56
2023/03/17 03:32:47;;;;;;;10.60;9.90;;;;;;;;;;4992364;28;20476;-56
2023/03/17 03:35:12;;;;;;;11.73;10.75;;;;;;;;;;5009451;28;20037;-55
2023/03/17 03:37:37;;;;;;;12.18;11.38;;;;;;;;;;4997877;28;20121;-55
2023/03/17 03:40:06;;;;;;;11.57;10.88;;;;;;;;;;4990738;28;20065;-56
2023/03/17 03:42:31;;;;;;;11.52;10.73;;;;;;;;;;4993112;28;20034;-55
2023/03/17 03:44:57;;;;;;;11.20;10.50;;;;;;;;;;4993841;28;20634;-56
2023/03/17 03:47:22;;;;;;;10.95;10.25;;;;;;;;;;4992571;28;20033;-56
2023/03/17 03:49:47;;;;;;;11.02;10.32;;;;;;;;;;4992674;28;20034;-55
2023/03/17 03:52:13;;;;;;;11.00;10.25;;;;;;;;;;4991163;28;20042;-55
2023/03/17 03:54:38;;;;;;;11.00;10.30;;;;;;;;;;4992530;28;20054;-56
2023/03/17 03:57:03;;;;;;;10.98;10.30;;;;;;;;;;4990172;28;20104;-55
2023/03/17 03:59:29;;;;;;;11.60;10.90;;;;;;;;;;4989928;28;20042;-55
2023/03/17 04:01:55;;;;;;;11.88;11.07;;;;;;;;;;4991660;28;20021;-54
2023/03/17 04:04:20;;;;;;;10.60;9.90;;;;;;;;;;4994906;28;20049;-55
2023/03/17 04:06:45;;;;;;;10.52;9.82;;;;;;;;;;4996591;28;20357;-56
2023/03/17 04:09:12;;;;;;;10.15;9.55;;;;;;;;;;4998834;28;20051;-55
2023/03/17 04:11:37;;;;;;;10.10;9.50;;;;;;;;;;4994109;28;20084;-56
2023/03/17 04:14:03;;;;;;;11.82;10.93;;;;;;;;;;4991540;28;20033;-55
2023/03/17 04:16:28;;;;;;;11.48;10.77;;;;;;;;;;4994807;28;20030;-56
2023/03/17 04:18:53;;;;;;;10.82;10.13;;;;;;;;;;4992307;28;20026;-55
2023/03/17 04:21:20;;;;;;;11.40;10.70;;;;;;;;;;4992528;28;20034;-56
2023/03/17 04:23:46;;;;;;;10.65;9.98;;;;;;;;;;4991529;28;20034;-55
2023/03/17 04:26:12;;;;;;;10.23;9.52;;;;;;;;;;4991709;28;20096;-55
2023/03/17 04:28:38;;;;;;;10.25;9.65;;;;;;;;;;4992409;28;20038;-55
2023/03/17 04:31:03;;;;;;;10.82;10.13;;;;;;;;;;4994203;28;20035;-56
2023/03/17 04:33:28;;;;;;;9.73;9.13;;;;;;;;;;4994154;28;20056;-56
2023/03/17 04:35:54;;;;;;;11.13;10.43;;;;;;;;;;4993400;28;20479;-55
2023/03/17 04:38:19;;;;;;;9.38;8.77;;;;;;;;;;4997551;28;20084;-55
2023/03/17 04:40:45;;;;;;;10.75;10.05;;;;;;;;;;5011586;28;20022;-54
2023/03/17 04:43:10;;;;;;;10.27;9.57;;;;;;;;;;4993070;28;20038;-56
2023/03/17 04:45:36;;;;;;;9.27;8.68;;;;;;;;;;4996858;28;20030;-55
2023/03/17 04:48:01;;;;;;;10.25;9.55;;;;;;;;;;4990949;28;20046;-55
2023/03/17 04:50:26;;;;;;;11.70;10.75;;;;;;;;;;4993807;28;20053;-55
2023/03/17 04:52:52;;;;;;;9.60;9.00;;;;;;;;;;4992174;28;20614;-55
2023/03/17 04:55:18;;;;;;;9.75;9.15;;;;;;;;;;4983727;28;20038;-55
2023/03/17 04:57:43;;;;;;;10.48;9.77;;;;;;;;;;4993743;28;20275;-54
2023/03/17 05:00:11;;;;;;;11.27;10.48;;;;;;;;;;4994317;28;20034;-55
2023/03/17 05:02:37;;;;;;;9.77;9.18;;;;;;;;;;4992672;28;20034;-55
2023/03/17 05:05:03;;;;;;;9.98;9.35;;;;;;;;;;4991277;28;20049;-55
2023/03/17 05:07:30;;;;;;;9.85;9.25;;;;;;;;;;4993186;28;20084;-54
2023/03/17 05:09:55;;;;;;;9.80;9.20;;;;;;;;;;4991497;28;20460;-56
2023/03/17 05:12:21;;;;;;;9.85;9.25;;;;;;;;;;4996690;28;20034;-55
2023/03/17 05:14:47;;;;;;;10.20;9.60;;;;;;;;;;4993470;28;20042;-55
2023/03/17 05:17:12;;;;;;;10.13;9.43;;;;;;;;;;4990539;28;20050;-55
2023/03/17 05:19:38;;;;;;;10.15;9.55;;;;;;;;;;4997160;28;20030;-55
2023/03/17 05:22:04;;;;;;;9.70;9.10;;;;;;;;;;4997721;28;20112;-55
2023/03/17 05:24:29;;;;;;;9.75;9.15;;;;;;;;;;4995073;28;20274;-54
2023/03/17 05:26:54;;;;;;;10.15;9.55;;;;;;;;;;4995040;28;20093;-55
2023/03/17 05:29:20;;;;;;;10.27;9.65;;;;;;;;;;4993774;28;20045;-57
2023/03/17 05:31:46;;;;;;;9.55;8.95;;;;;;;;;;5002858;28;20510;-55
2023/03/17 05:34:11;;;;;;;9.82;9.23;;;;;;;;;;4991998;28;20060;-56
2023/03/17 05:36:37;;;;;;;9.68;9.07;;;;;;;;;;4994091;28;20129;-55
2023/03/17 05:39:04;;;;;;;10.05;9.45;;;;;;;;;;4992102;28;20081;-56
2023/03/17 05:41:29;;;;;;;9.40;8.80;;;;;;;;;;4994913;28;20423;-55
2023/03/17 05:43:55;;;;;;;9.98;9.38;;;;;;;;;;4991478;28;20030;-55
2023/03/17 05:46:21;;;;;;;9.80;9.20;;;;;;;;;;4992761;28;20133;-56
2023/03/17 05:48:47;;;;;;;11.57;10.70;;;;;;;;;;5003738;28;20816;-56
2023/03/17 05:51:13;;;;;;;11.25;10.50;;;;;;;;;;4995448;28;20391;-55
2023/03/17 05:53:38;;;;;;;9.98;9.30;;;;;;;;;;4992405;28;20035;-56
2023/03/17 05:56:05;;;;;;;10.13;9.45;;;;;;;;;;4992842;28;20035;-56
2023/03/17 05:58:31;;;;;;;10.70;10.00;;;;;;;;;;4996522;28;20041;-56
2023/03/17 06:00:57;;;;;;;10.77;10.07;;;;;;;;;;4994584;28;20451;-56
2023/03/17 06:03:22;;;;;;;11.20;10.48;;;;;;;;;;4992431;28;20026;-57
2023/03/17 06:05:47;;;;;;;10.95;10.15;;;;;;;;;;4992927;28;20111;-56
2023/03/17 06:08:13;;;;;;;10.75;10.07;;;;;;;;;;4996896;28;20456;-56
2023/03/17 06:10:40;;;;;;;11.00;10.30;;;;;;;;;;4994320;28;20025;-56
2023/03/17 06:13:05;;;;;;;11.45;10.65;;;;;;;;;;4995556;28;20161;-56
2023/03/17 06:15:32;;;;;;;10.65;9.98;;;;;;;;;;4993587;28;20034;-57
2023/03/17 06:17:58;;;;;;;11.32;10.63;;;;;;;;;;4995032;28;20034;-50
2023/03/17 06:20:24;;;;;;;11.10;10.40;;;;;;;;;;4994225;28;20065;-50
2023/03/17 06:22:49;;;;;;;11.93;11.23;;;;;;;;;;4992086;28;20421;-49
2023/03/17 06:25:15;;;;;;;17.98;11.43;;;;;;;;;;4993350;28;20821;-52
2023/03/17 06:27:41;;;;;;;12.18;11.32;;;;;;;;;;4993143;28;20040;-51
2023/03/17 06:30:08;;;;;;;10.93;10.25;;;;;;;;;;4990393;28;20079;-52
2023/03/17 06:32:34;;;;;;;12.13;11.32;;;;;;;;;;4994428;28;20033;-53
2023/03/17 06:35:00;;;;;;;11.63;10.82;;;;;;;;;;4992633;28;20498;-51
2023/03/17 06:37:26;;;;;;;11.35;10.65;;;;;;;;;;4994630;28;20034;-53
2023/03/17 06:39:52;;;;;;;12.43;11.20;;;;;;;;;;4997075;28;20048;-53
2023/03/17 06:42:18;;;;;;;11.57;10.82;;;;;;;;;;4994182;28;20379;-51
2023/03/17 06:44:44;;;;;;;10.98;10.25;;;;;;;;;;4996889;28;20041;-51
2023/03/17 06:47:10;;;;;;;11.65;10.85;;;;;;;;;;4993720;28;20349;-52
2023/03/17 06:49:35;;;;;;;10.35;9.75;;;;;;;;;;4992796;28;20038;-52
2023/03/17 06:52:00;;;;;;;10.18;9.57;;;;;;;;;;4997648;28;20075;-50
2023/03/17 06:54:26;;;;;;;10.25;9.55;;;;;;;;;;4994005;28;20095;-51
2023/03/17 06:56:52;;;;;;;16.73;10.43;;;;;;;;;;4998175;28;20038;-52
2023/03/17 06:59:20;;;;;;;10.73;9.95;;;;;;;;;;4994090;28;20135;-52
2023/03/17 07:01:47;;;;;;;10.02;9.35;;;;;;;;;;4994613;28;20054;-54
2023/03/17 07:04:13;;;;;;;10.45;9.65;;;;;;;;;;4996102;28;20048;-53
2023/03/17 07:06:38;;;;;;;12.15;11.25;;;;;;;;;;4994921;28;20034;-53
2023/03/17 07:09:04;;;;;;;11.18;10.48;;;;;;;;;;4990680;28;20550;-53
2023/03/17 07:11:31;;;;;;;10.98;10.27;;;;;;;;;;4994223;28;20038;-52
2023/03/17 07:13:57;;;;;;;11.45;10.75;;;;;;;;;;4994104;28;20079;-58
2023/03/17 07:16:22;;;;;;;10.85;10.15;;;;;;;;;;4995912;28;20077;-59
2023/03/17 07:18:48;;;;;;;10.52;9.82;;;;;;;;;;4996847;28;20052;-57
2023/03/17 07:21:13;;;;;;;10.68;9.98;;;;;;;;;;4988858;28;20707;-59
2023/03/17 07:23:38;;;;;;;10.43;9.73;;;;;;;;;;5020300;28;20086;-59
2023/03/17 07:26:04;;;;;;;11.18;10.48;;;;;;;;;;4992592;28;20128;-59
2023/03/17 07:28:29;;;;;;;10.52;9.82;;;;;;;;;;4991566;28;20121;-58
2023/03/17 07:30:56;;;;;;;10.80;10.10;;;;;;;;;;4990648;28;20050;-58
2023/03/17 07:33:23;;;;;;;9.85;9.20;;;;;;;;;;4992993;28;20027;-59
2023/03/17 07:35:50;;;;;;;10.25;9.55;;;;;;;;;;4994880;28;20852;-58
2023/03/17 07:38:17;;;;;;;10.65;9.93;;;;;;;;;;4994296;28;20038;-51
2023/03/17 07:40:46;;;;;;;9.20;8.60;;;;;;;;;;4980239;28;20049;-53
2023/03/17 07:43:15;;;;;;;10.57;9.88;;;;;;;;;;4996415;28;20065;-49
2023/03/17 07:45:43;;;;;;;10.23;9.43;;;;;;;;;;4990562;28;20030;-53
2023/03/17 07:48:10;;;;;;;10.80;9.68;;;;;;;;;;4990075;28;20050;-51
2023/03/17 07:50:37;;;;;;;9.93;9.32;;;;;;;;;;4996133;28;20029;-50
2023/03/17 07:53:03;;;;;;;25.85;10.27;;;;;;;;;;4994382;28;20064;-51
2023/03/17 07:55:31;;;;;;;9.68;9.07;;;;;;;;;;4995407;28;20040;-58
2023/03/17 07:57:58;;;;;;;10.02;9.43;;;;;;;;;;4993409;28;20039;-59
2023/03/17 08:00:23;;;;;;;9.88;9.18;;;;;;;;;;4999940;28;20110;-58
2023/03/17 08:02:50;;;;;;;9.82;9.23;;;;;;;;;;5000149;28;20042;-59
2023/03/17 08:05:18;;;;;;;10.00;9.40;;;;;;;;;;4993775;28;20044;-59
2023/03/17 08:07:44;;;;;;;12.10;11.40;;;;;;;;;;4992892;28;20491;-53
2023/03/17 08:10:12;;;;;;;11.73;11.02;;;;;;;;;;4994243;28;20073;-54
2023/03/17 08:12:39;;;;;;;11.50;10.80;;;;;;;;;;4995122;28;20049;-54
2023/03/17 08:15:05;;;;;;;12.43;11.70;;;;;;;;;;4996109;28;20041;-53
2023/03/17 08:17:31;;;;;;;12.93;12.18;;;;;;;;;;4994311;28;20049;-54
2023/03/17 08:19:57;;;;;;;12.02;11.32;;;;;;;;;;4990201;28;20040;-52
2023/03/17 08:22:24;;;;;;;13.55;12.75;;;;;;;;;;4993732;28;20034;-53
2023/03/17 08:24:50;;;;;;;13.85;13.05;;;;;;;;;;4997223;28;20485;-53
2023/03/17 08:27:19;;;;;;;14.70;13.80;;;;;;;;;;5008809;28;20037;-53
2023/03/17 08:29:45;;;;;;;14.07;13.18;;;;;;;;;;4993859;28;20029;-51
2023/03/17 08:32:10;;;;;;;13.73;12.73;;;;;;;;;;4989878;28;20030;-53
2023/03/17 08:34:36;;;;;;;14.90;14.02;;;;;;;;;;4993928;28;20080;-52
2023/03/17 08:37:02;;;;;;;13.75;12.95;;;;;;;;;;4995632;28;20022;-53
2023/03/17 08:39:29;;;;;;;13.73;12.93;;;;;;;;;;4989601;28;20470;-53
2023/03/17 08:41:55;;;;;;;16.23;15.23;;;;;;;;;;4992096;28;20609;-51
2023/03/17 08:44:21;;;;;;;17.02;15.88;;;;;;;;;;4992389;28;20037;-53
2023/03/17 08:46:48;;;;;;;15.55;14.57;;;;;;;;;;4992015;28;20082;-53
2023/03/17 08:49:15;;;;;;;15.63;14.73;;;;;;;;;;4990049;28;20498;-53
2023/03/17 08:51:43;;;;;;;17.42;16.42;;;;;;;;;;4993772;28;20693;-52
2023/03/17 08:54:14;;;;;;;16.80;15.80;;;;;;;;;;4994984;28;20045;-52
2023/03/17 08:56:40;;;;;;;16.42;15.43;;;;;;;;;;4987368;28;20585;-52
2023/03/17 08:59:08;;;;;;;15.48;14.57;;;;;;;;;;4995352;28;20084;-53
2023/03/17 09:01:34;;;;;;;14.30;13.40;;;;;;;;;;4996723;28;20034;-53
2023/03/17 09:04:05;;;;;;;12.25;11.55;;;;;;;;;;4997764;28;20399;-57
2023/03/17 09:06:31;;;;;;;13.27;12.40;;;;;;;;;;4995283;28;20050;-53
2023/03/17 09:08:59;;;;;;;12.63;11.82;;;;;;;;;;4997263;28;20096;-53
2023/03/17 09:11:28;;;;;;;13.00;12.20;;;;;;;;;;4997169;28;20116;-55
2023/03/17 09:13:55;;;;;;;13.35;12.52;;;;;;;;;;4994253;28;20097;-54
2023/03/17 09:16:22;;;;;;;12.73;11.98;;;;;;;;;;4998254;28;20326;-53
2023/03/17 09:18:48;;;;;;;12.57;11.77;;;;;;;;;;4990397;28;20197;-54
2023/03/17 09:21:15;;;;;;;15.43;14.52;;;;;;;;;;4998446;28;20153;-53
2023/03/17 09:23:41;;;;;;;15.45;14.35;;;;;;;;;;4995821;28;20026;-54
2023/03/17 09:26:06;;;;;;;12.85;12.05;;;;;;;;;;4992895;28;20131;-52
2023/03/17 09:28:32;;;;;;;15.88;14.90;;;;;;;;;;4991607;28;20383;-55
2023/03/17 09:31:00;;;;;;;13.43;12.63;;;;;;;;;;4995885;28;20038;-53
2023/03/17 09:33:25;;;;;;;15.02;14.20;;;;;;;;;;5008726;28;20385;-55
2023/03/17 09:35:51;;;;;;;15.02;14.13;;;;;;;;;;4997321;28;20061;-55
2023/03/17 09:38:16;;;;;;;13.82;13.02;;;;;;;;;;4994105;28;20053;-53
2023/03/17 09:41:19;;;;;;;15.88;14.98;;;;;;;;;;4995584;28;20045;-55
2023/03/17 09:44:00;;;;;;;18.73;17.63;;;;;;;;;;4994401;28;20145;-55
2023/03/17 09:46:41;;;;;;;18.05;16.88;;;;;;;;;;4996014;28;20109;-53
2023/03/17 09:49:10;;;;;;;15.07;14.05;;;;;;;;;;4995155;28;20454;-54
2023/03/17 09:51:37;;;;;;;15.90;15.00;;;;;;;;;;4995613;28;20042;-54
2023/03/17 09:54:11;;;;;;;17.88;16.88;;;;;;;;;;4997017;28;20470;-54
2023/03/17 09:56:42;;;;;;;17.55;16.55;;;;;;;;;;4995855;28;20367;-55
2023/03/17 09:59:28;;;;;;;16.25;15.35;;;;;;;;;;4992587;28;20042;-54
2023/03/17 10:01:54;;;;;;;17.38;16.38;;;;;;;;;;4997307;28;20121;-54
2023/03/17 10:04:20;;;;;;;18.75;17.65;;;;;;;;;;4996581;28;20069;-55
2023/03/17 10:06:46;;;;;;;16.60;15.70;;;;;;;;;;4993597;28;20033;-56
2023/03/17 10:09:37;;;;;;;18.40;17.20;;;;;;;;;;4994117;28;20084;-57
2023/03/17 10:12:18;;;;;;;16.45;15.45;;;;;;;;;;4999083;28;20034;-56
2023/03/17 10:14:56;;;;;;;17.77;16.77;;;;;;;;;;4992995;28;20448;-55
2023/03/17 10:17:29;;;;;;;19.23;18.13;;;;;;;;;;4992182;28;20042;-56
2023/03/17 10:20:04;;;;;;;17.60;16.60;;;;;;;;;;4996285;28;20030;-57
2023/03/17 10:22:45;;;;;;;19.00;17.92;;;;;;;;;;5010208;28;20068;-56
2023/03/17 10:25:19;;;;;;;18.77;17.67;;;;;;;;;;4994699;28;20117;-57
2023/03/17 10:27:56;;;;;;;18.73;17.67;;;;;;;;;;4996686;28;20546;-57
2023/03/17 10:30:22;;;;;;;18.17;17.17;;;;;;;;;;4996038;28;20463;-55
2023/03/17 10:32:49;;;;;;;20.00;18.90;;;;;;;;;;4996031;28;20025;-55
2023/03/17 10:35:16;;;;;;;19.60;18.50;;;;;;;;;;4995492;28;20038;-55
2023/03/17 10:37:44;;;;;;;19.90;18.80;;;;;;;;;;4995075;28;20021;-56
2023/03/17 10:40:29;;;;;;;20.75;19.55;;;;;;;;;;5000869;28;20033;-56
2023/03/17 10:43:09;;;;;;;20.92;19.80;;;;;;;;;;4995125;28;20096;-55
2023/03/17 10:45:39;;;;;;;19.23;18.13;;;;;;;;;;5011202;28;20070;-56
2023/03/17 10:48:09;;;;;;;20.85;19.55;;;;;;;;;;4994272;28;20053;-56
2023/03/17 10:50:36;;;;;;;21.92;20.63;;;;;;;;;;4995193;28;20050;-56
2023/03/17 10:53:01;;;;;;;20.58;19.38;;;;;;;;;;4995223;28;20038;-56
2023/03/17 10:55:32;;;;;;;19.23;18.08;;;;;;;;;;4995340;28;20041;-57
2023/03/17 10:58:16;;;;;;;18.25;17.15;;;;;;;;;;4994705;28;20034;-56
2023/03/17 11:00:55;;;;;;;17.23;16.23;;;;;;;;;;4994808;28;20116;-56
2023/03/17 11:03:23;;;;;;;14.93;14.13;;;;;;;;;;4996163;28;20034;-57
2023/03/17 11:05:59;;;;;;;15.00;14.10;;;;;;;;;;4994546;28;20494;-56
2023/03/17 11:08:34;;;;;;;16.23;14.90;;;;;;;;;;4993299;28;20372;-57
2023/03/17 11:11:04;;;;;;;14.95;14.05;;;;;;;;;;4995117;28;20038;-57
2023/03/17 11:13:30;;;;;;;14.15;13.35;;;;;;;;;;4993314;28;20340;-56
2023/03/17 11:16:20;;;;;;;16.48;15.45;;;;;;;;;;4994391;28;20092;-57
2023/03/17 11:18:47;;;;;;;14.02;13.23;;;;;;;;;;4993698;28;20126;-57
2023/03/17 11:21:50;;;;;;;14.00;13.20;;;;;;;;;;4994575;28;20038;-57
2023/03/17 11:24:35;;;;;;;14.55;13.65;;;;;;;;;;4995727;28;20041;-57
2023/03/17 11:27:40;;;;;;;14.85;13.98;;;;;;;;;;4993548;28;20034;-57
2023/03/17 11:30:19;;;;;;;13.88;13.02;;;;;;;;;;4990605;28;20030;-57
2023/03/17 11:32:58;;;;;;;15.30;14.40;;;;;;;;;;4991785;28;20109;-57
2023/03/17 11:35:51;;;;;;;15.50;14.60;;;;;;;;;;4989187;28;20034;-57
2023/03/17 11:38:23;;;;;;;14.52;13.68;;;;;;;;;;4993469;28;20115;-57
2023/03/17 11:40:55;;;;;;;14.18;13.35;;;;;;;;;;4993386;28;20046;-57
2023/03/17 11:43:29;;;;;;;15.23;14.32;;;;;;;;;;4991568;28;20053;-57
2023/03/17 11:46:08;;;;;;;14.35;13.45;;;;;;;;;;4990837;28;20041;-56
2023/03/17 11:48:51;;;;;;;13.77;12.98;;;;;;;;;;4990300;28;20650;-57
2023/03/17 11:51:38;;;;;;;15.27;14.38;;;;;;;;;;4992677;28;20119;-57
2023/03/17 11:54:15;;;;;;;16.60;15.50;;;;;;;;;;4992661;28;20042;-57
2023/03/17 11:56:46;;;;;;;16.85;15.77;;;;;;;;;;4993881;28;20038;-58
2023/03/17 11:59:21;;;;;;;19.92;18.73;;;;;;;;;;4989307;28;20038;-57
2023/03/17 12:01:54;;;;;;;17.25;16.23;;;;;;;;;;4993954;28;20045;-57
2023/03/17 12:04:37;;;;;;;19.98;18.63;;;;;;;;;;4997372;28;20804;-57
2023/03/17 12:07:20;;;;;;;18.02;17.02;;;;;;;;;;4995454;28;20035;-57
2023/03/17 12:09:55;;;;;;;14.80;13.90;;;;;;;;;;4994257;28;20026;-57
2023/03/17 12:12:29;;;;;;;15.25;14.30;;;;;;;;;;4992849;28;20080;-57
2023/03/17 12:14:56;;;;;;;15.10;14.20;;;;;;;;;;4990372;28;20097;-57
2023/03/17 12:17:29;;;;;;;16.13;15.13;;;;;;;;;;4991389;28;20049;-57
2023/03/17 12:20:15;;;;;;;15.25;14.30;;;;;;;;;;4991591;28;20026;-57
2023/03/17 12:23:28;;;;;;;14.85;13.95;;;;;;;;;;4990964;28;20030;-56
2023/03/17 12:26:06;;;;;;;14.32;13.43;;;;;;;;;;4940445;28;20606;-57
2023/03/17 12:28:41;;;;;;;15.27;14.27;;;;;;;;;;4939304;28;20205;-57
2023/03/17 12:31:11;;;;;;;14.05;13.25;;;;;;;;;;4974297;28;20557;-57
2023/03/17 12:34:03;;;;;;;13.95;13.05;;;;;;;;;;5007579;28;20030;-57
2023/03/17 12:36:30;;;;;;;13.20;12.40;;;;;;;;;;5006008;28;20040;-57
2023/03/17 12:39:00;;;;;;;14.60;13.60;;;;;;;;;;4993499;28;20056;-56
2023/03/17 12:41:45;;;;;;;;;;;;;;;;;;4991721;28;20072;-57
2023/03/17 12:44:38;;;;;;;14.45;13.52;;;;;;;;;;5021989;28;19921;-57
2023/03/17 12:47:03;;;;;;;16.00;15.00;;;;;;;;;;4961131;28;20077;-57
2023/03/17 12:49:49;;;;;;;14.52;13.63;;;;;;;;;;4988852;28;20042;-57
2023/03/17 12:52:36;;;;;;;14.82;13.88;;;;;;;;;;5008196;28;20491;-57
2023/03/17 12:55:06;;;;;;;13.43;12.63;;;;;;;;;;4993930;28;20042;-56
2023/03/17 12:57:41;;;;;;;15.17;14.27;;;;;;;;;;4990592;28;20033;-57
2023/03/17 13:00:28;;;;;;;15.13;14.23;;;;;;;;;;4991107;28;20825;-57
2023/03/17 13:03:15;;;;;;;15.38;14.48;;;;;;;;;;4994773;28;20061;-56
2023/03/17 13:05:46;;;;;;;14.60;13.70;;;;;;;;;;4990271;28;20516;-57
2023/03/17 13:08:16;;;;;;;14.95;13.95;;;;;;;;;;4991097;28;20048;-57
2023/03/17 13:10:49;;;;;;;14.75;13.85;;;;;;;;;;4988269;28;20061;-57
2023/03/17 13:13:32;;;;;;;14.88;14.05;;;;;;;;;;4989280;28;20038;-57
2023/03/17 13:15:59;;;;;;;15.23;14.23;;;;;;;;;;4990593;28;20455;-57
2023/03/17 13:18:45;;;;;;;15.05;14.15;;;;;;;;;;4988982;28;20505;-58
2023/03/17 13:21:17;;;;;;;15.18;14.00;;;;;;;;;;4989321;28;20038;-57
2023/03/17 13:23:47;;;;;;;14.90;13.90;;;;;;;;;;4992380;28;20121;-57
2023/03/17 13:26:21;;;;;;;13.43;12.63;;;;;;;;;;4992556;28;20033;-57
2023/03/17 13:28:49;;;;;;;14.35;13.45;;;;;;;;;;4991081;28;20045;-57
2023/03/17 13:31:28;;;;;;;14.93;13.93;;;;;;;;;;4988989;28;20122;-57
2023/03/17 13:34:11;;;;;;;14.82;13.82;;;;;;;;;;4992261;28;20038;-57
2023/03/17 13:37:00;;;;;;;15.73;14.77;;;;;;;;;;4990844;28;20369;-56
2023/03/17 13:39:39;;;;;;;16.52;15.48;;;;;;;;;;4991930;28;20038;-57
2023/03/17 13:42:24;;;;;;;13.80;12.98;;;;;;;;;;4995077;28;20042;-56
2023/03/17 13:44:58;;;;;;;15.55;14.10;;;;;;;;;;4995800;28;20049;-57
2023/03/17 13:47:37;;;;;;;14.85;13.95;;;;;;;;;;5008531;28;20639;-57
2023/03/17 13:50:15;;;;;;;14.55;13.65;;;;;;;;;;4992060;28;20052;-57
2023/03/17 13:52:51;;;;;;;14.70;13.88;;;;;;;;;;4996587;28;20060;-57
2023/03/17 13:55:17;;;;;;;14.30;13.30;;;;;;;;;;4994213;28;20116;-57
2023/03/17 13:58:14;;;;;;;14.02;13.15;;;;;;;;;;4994780;28;20494;-57
2023/03/17 14:00:43;;;;;;;14.63;13.75;;;;;;;;;;4996350;28;20109;-57
2023/03/17 14:03:20;;;;;;;13.55;12.75;;;;;;;;;;4998107;28;20036;-57
2023/03/17 14:05:49;;;;;;;15.05;14.13;;;;;;;;;;4997684;28;20034;-57
2023/03/17 14:08:25;;;;;;;14.48;13.57;;;;;;;;;;4992321;28;20365;-57
2023/03/17 14:11:00;;;;;;;16.13;15.13;;;;;;;;;;4993172;28;20395;-57
2023/03/17 14:13:37;;;;;;;15.02;14.13;;;;;;;;;;4992949;28;20042;-57
2023/03/17 14:16:15;;;;;;;14.63;13.73;;;;;;;;;;4994566;28;20121;-57
2023/03/17 14:18:52;;;;;;;13.15;12.35;;;;;;;;;;4996557;28;20034;-57
2023/03/17 14:21:21;;;;;;;14.85;13.95;;;;;;;;;;4997755;28;20030;-57
2023/03/17 14:23:59;;;;;;;15.27;14.38;;;;;;;;;;4999435;28;20042;-57
2023/03/17 14:26:30;;;;;;;15.05;14.15;;;;;;;;;;4994836;28;20057;-58
2023/03/17 14:29:01;;;;;;;14.57;13.68;;;;;;;;;;4993838;28;20062;-57
2023/03/17 14:31:27;;;;;;;15.13;14.23;;;;;;;;;;4996211;28;20069;-57
2023/03/17 14:33:56;;;;;;;15.10;14.20;;;;;;;;;;4998457;28;20080;-57
2023/03/17 14:36:22;;;;;;;14.98;14.07;;;;;;;;;;4991844;28;20034;-57
2023/03/17 14:38:53;;;;;;;14.35;13.48;;;;;;;;;;4992599;28;20065;-58